createdAt,value
2019-04-20T00:02:13.736Z,102504.75
2019-04-20T00:04:37.346Z,102497.53
2019-04-20T00:07:08.094Z,102500.70
2019-04-20T00:09:39.961Z,102495.79
2019-04-20T00:12:17.751Z,102501.99
2019-04-20T00:14:41.336Z,102500.23
2019-04-20T00:17:11.986Z,102496.11
2019-04-20T00:19:47.088Z,102498.66
2019-04-20T00:22:15.640Z,102500.00
2019-04-20T00:25:00.431Z,102506.00
2019-04-20T00:27:44.403Z,102502.48
2019-04-20T00:30:22.776Z,102495.59
2019-04-20T00:32:43.765Z,102489.71
2019-04-20T00:34:59.955Z,102489.57
2019-04-20T00:37:29.797Z,102494.91
2019-04-20T00:39:59.591Z,102493.25
2019-04-20T00:42:37.991Z,102494.03
2019-04-20T00:45:08.435Z,102496.11
2019-04-20T00:47:41.866Z,102495.48
2019-04-20T00:50:21.350Z,102493.28
2019-04-20T00:52:51.333Z,102488.66
2019-04-20T00:55:08.345Z,102491.27
2019-04-20T00:57:46.353Z,102491.88
2019-04-20T01:00:25.849Z,102493.27
2019-04-20T01:02:50.779Z,102498.97
2019-04-20T01:05:35.370Z,102486.45
2019-04-20T01:07:58.121Z,102494.86
2019-04-20T01:10:28.315Z,102490.62
2019-04-20T01:13:02.341Z,102496.28
2019-04-20T01:15:38.611Z,102500.73
2019-04-20T01:18:00.131Z,102494.81
2019-04-20T01:20:29.761Z,102492.82
2019-04-20T01:23:07.466Z,102488.25
2019-04-20T01:25:37.621Z,102497.19
2019-04-20T01:28:24.190Z,102495.58
2019-04-20T01:30:41.988Z,102489.41
2019-04-20T01:33:22.877Z,102493.17
2019-04-20T01:35:56.685Z,102489.84
2019-04-20T01:38:26.800Z,102489.48
2019-04-20T01:40:44.391Z,102486.96
2019-04-20T01:43:14.273Z,102500.16
2019-04-20T01:45:45.364Z,102498.23
2019-04-20T01:48:25.515Z,102493.88
2019-04-20T01:50:54.847Z,102496.33
2019-04-20T01:53:46.738Z,102495.68
2019-04-20T01:56:13.749Z,102490.81
2019-04-20T01:59:02.631Z,102491.73
2019-04-20T02:01:35.559Z,102495.30
2019-04-20T02:04:06.403Z,102495.41
2019-04-20T02:06:42.556Z,102490.63
2019-04-20T02:09:14.574Z,102492.50
2019-04-20T02:11:43.587Z,102497.30
2019-04-20T02:14:13.652Z,102495.19
2019-04-20T02:16:48.006Z,102493.46
2019-04-20T02:19:30.397Z,102498.69
2019-04-20T02:22:00.225Z,102498.33
2019-04-20T02:24:17.845Z,102497.09
2019-04-20T02:26:50.080Z,102500.23
2019-04-20T02:29:40.700Z,102497.37
2019-04-20T02:32:32.195Z,102504.13
2019-04-20T02:35:09.647Z,102498.27
2019-04-20T02:40:35.366Z,102493.12
2019-04-20T02:42:59.941Z,102498.30
2019-04-20T02:50:30.169Z,102496.12
2019-04-20T02:53:05.743Z,102497.16
2019-04-20T02:55:31.343Z,102497.70
2019-04-20T02:58:05.245Z,102498.20
2019-04-20T03:00:35.576Z,102498.27
2019-04-20T03:02:53.683Z,102499.62
2019-04-20T03:05:28.078Z,102499.12
2019-04-20T03:08:02.805Z,102498.86
2019-04-20T03:10:44.661Z,102497.41
2019-04-20T03:13:08.604Z,102496.25
2019-04-20T03:15:38.184Z,102491.66
2019-04-20T03:18:12.052Z,102496.95
2019-04-20T03:20:41.726Z,102491.80
2019-04-20T03:25:55.595Z,102501.06
2019-04-20T03:28:28.422Z,102505.92
2019-04-20T03:36:10.412Z,102502.07
2019-04-20T03:38:26.202Z,102502.58
2019-04-20T03:40:54.305Z,102494.85
2019-04-20T03:43:12.065Z,102497.16
2019-04-20T03:45:52.697Z,102495.05
2019-04-20T03:48:33.600Z,102494.55
2019-04-20T03:51:02.326Z,102497.65
2019-04-20T03:53:38.535Z,102497.30
2019-04-20T03:56:19.736Z,102499.97
2019-04-20T03:58:51.920Z,102496.17
2019-04-20T04:01:43.157Z,102500.03
2019-04-20T04:04:05.338Z,102500.52
2019-04-20T04:06:25.989Z,102500.03
2019-04-20T04:09:06.416Z,102493.50
2019-04-20T04:11:34.879Z,102491.17
2019-04-20T04:13:52.436Z,102501.36
2019-04-20T04:16:27.067Z,102496.52
2019-04-20T04:19:07.831Z,102497.58
2019-04-20T04:21:40.821Z,102494.64
2019-04-20T04:24:09.564Z,102494.59
2019-04-20T04:26:42.734Z,102494.53
2019-04-20T04:29:25.741Z,102491.48
2019-04-20T04:31:57.746Z,102493.86
2019-04-20T04:34:27.471Z,102496.75
2019-04-20T04:36:56.126Z,102489.69
2019-04-20T04:39:34.008Z,102488.45
2019-04-20T04:42:07.591Z,102491.77
2019-04-20T04:44:23.927Z,102487.17
2019-04-20T04:46:49.250Z,102490.51
2019-04-20T04:49:20.844Z,102494.94
2019-04-20T04:51:52.115Z,102497.77
2019-04-20T04:54:25.858Z,102504.05
2019-04-20T04:56:46.328Z,102499.19
2019-04-20T04:59:17.137Z,102504.40
2019-04-20T05:01:51.443Z,102504.29
2019-04-20T05:04:40.129Z,102500.58
2019-04-20T05:07:05.182Z,102503.14
2019-04-20T05:09:23.801Z,102504.71
2019-04-20T05:11:59.911Z,102507.63
2019-04-20T05:14:38.088Z,102509.70
2019-04-20T05:17:11.425Z,102503.02
2019-04-20T05:19:50.074Z,102510.11
2019-04-20T05:22:21.852Z,102507.78
2019-04-20T05:25:02.271Z,102513.34
2019-04-20T05:27:45.371Z,102514.09
2019-04-20T05:29:59.157Z,102507.56
2019-04-20T05:32:39.637Z,102509.38
2019-04-20T05:35:25.489Z,102511.26
2019-04-20T05:38:05.143Z,102507.44
2019-04-20T05:40:29.285Z,102507.77
2019-04-20T05:42:59.494Z,102501.43
2019-04-20T05:45:24.913Z,102499.92
2019-04-20T05:47:58.614Z,102499.23
2019-04-20T05:50:30.276Z,102498.22
2019-04-20T05:53:07.719Z,102501.48
2019-04-20T05:55:41.619Z,102500.95
2019-04-20T05:58:14.541Z,102500.19
2019-04-20T06:00:48.132Z,102504.84
2019-04-20T06:03:12.773Z,102505.04
2019-04-20T06:05:55.521Z,102505.42
2019-04-20T06:08:24.996Z,102506.78
2019-04-20T06:10:52.269Z,102511.24
2019-04-20T06:13:17.776Z,102507.19
2019-04-20T06:15:53.682Z,102503.34
2019-04-20T06:18:36.008Z,102505.62
2019-04-20T06:21:21.301Z,102504.96
2019-04-20T06:26:40.045Z,102503.61
2019-04-20T06:28:50.851Z,102496.67
2019-04-20T06:31:34.080Z,102501.69
2019-04-20T06:36:52.626Z,102498.67
2019-04-20T06:39:37.289Z,102499.87
2019-04-20T06:42:07.092Z,102502.48
2019-04-20T06:47:02.791Z,102499.73
2019-04-20T06:51:59.325Z,102500.76
2019-04-20T06:54:29.607Z,102506.47
2019-04-20T06:57:07.102Z,102505.33
2019-04-20T06:59:46.002Z,102504.47
2019-04-20T07:02:17.249Z,102505.13
2019-04-20T07:04:50.263Z,102502.94
2019-04-20T07:07:14.553Z,102505.05
2019-04-20T07:09:58.328Z,102500.11
2019-04-20T07:12:12.439Z,102502.80
2019-04-20T07:14:39.076Z,102506.94
2019-04-20T07:17:26.990Z,102499.30
2019-04-20T07:19:50.463Z,102505.28
2019-04-20T07:22:37.576Z,102499.11
2019-04-20T07:25:06.404Z,102496.23
2019-04-20T07:27:41.594Z,102493.81
2019-04-20T07:30:12.382Z,102495.56
2019-04-20T07:32:49.827Z,102485.64
2019-04-20T07:35:14.223Z,102488.55
2019-04-20T07:40:20.397Z,102491.36
2019-04-20T07:42:56.522Z,102489.28
2019-04-20T07:45:30.887Z,102479.25
2019-04-20T07:48:02.733Z,102483.19
2019-04-20T07:50:21.711Z,102484.19
2019-04-20T07:52:51.195Z,102481.52
2019-04-20T07:55:37.037Z,102485.39
2019-04-20T07:57:58.081Z,102491.03
2019-04-20T08:03:16.322Z,102491.05
2019-04-20T08:05:36.315Z,102487.58
2019-04-20T08:08:16.862Z,102485.73
2019-04-20T08:10:42.787Z,102478.78
2019-04-20T08:13:27.546Z,102477.46
2019-04-20T08:16:06.643Z,102472.35
2019-04-20T08:18:27.591Z,102470.76
2019-04-20T08:20:58.520Z,102470.33
2019-04-20T08:23:38.636Z,102466.60
2019-04-20T08:25:47.428Z,102457.52
2019-04-20T08:28:16.791Z,102459.86
2019-04-20T08:31:09.319Z,102465.69
2019-04-20T08:33:54.951Z,102463.70
2019-04-20T08:36:23.195Z,102463.14
2019-04-20T08:39:15.056Z,102457.11
2019-04-20T08:41:18.193Z,102452.54
2019-04-20T08:44:23.834Z,102454.00
2019-04-20T08:46:25.195Z,102453.06
2019-04-20T08:48:58.177Z,102448.59
2019-04-20T08:51:26.003Z,102441.62
2019-04-20T08:53:59.383Z,102435.17
2019-04-20T08:56:21.566Z,102436.05
2019-04-20T08:58:41.554Z,102429.80
2019-04-20T09:01:20.063Z,102426.30
2019-04-20T09:03:55.864Z,102428.07
2019-04-20T09:06:26.385Z,102421.75
2019-04-20T09:08:57.871Z,102419.56
2019-04-20T09:11:31.185Z,102422.28
2019-04-20T09:13:53.590Z,102416.92
2019-04-20T09:16:28.772Z,102414.28
2019-04-20T09:18:58.969Z,102413.66
2019-04-20T09:21:33.123Z,102413.05
2019-04-20T09:24:21.527Z,102409.66
2019-04-20T09:26:42.864Z,102398.55
2019-04-20T09:29:11.133Z,102407.73
2019-04-20T09:31:43.627Z,102399.61
2019-04-20T09:34:20.555Z,102393.20
2019-04-20T09:36:54.014Z,102393.76
2019-04-20T09:39:28.387Z,102389.80
2019-04-20T09:42:01.901Z,102384.66
2019-04-20T09:44:37.517Z,102391.73
2019-04-20T09:47:05.079Z,102385.50
2019-04-20T09:49:47.224Z,102384.37
2019-04-20T09:52:16.980Z,102388.18
2019-04-20T09:54:56.374Z,102395.00
2019-04-20T09:57:30.587Z,102378.95
2019-04-20T09:59:57.680Z,102383.00
2019-04-20T10:02:20.148Z,102377.20
2019-04-20T10:04:43.902Z,102376.67
2019-04-20T10:07:17.973Z,102371.91
2019-04-20T10:09:46.638Z,102371.42
2019-04-20T10:12:17.583Z,102371.23
2019-04-20T10:14:47.340Z,102374.91
2019-04-20T10:17:18.049Z,102368.04
2019-04-20T10:19:48.295Z,102367.00
2019-04-20T10:22:18.451Z,102367.73
2019-04-20T10:24:50.312Z,102359.97
2019-04-20T10:27:20.829Z,102353.55
2019-04-20T10:29:51.441Z,102358.64
2019-04-20T10:32:25.135Z,102363.41
2019-04-20T10:34:52.813Z,102355.70
2019-04-20T10:37:24.061Z,102357.18
2019-04-20T10:39:54.408Z,102361.63
2019-04-20T10:42:24.104Z,102358.98
2019-04-20T10:44:55.890Z,102351.55
2019-04-20T10:47:25.363Z,102354.97
2019-04-20T10:49:55.345Z,102354.32
2019-04-20T10:52:26.099Z,102339.20
2019-04-20T10:54:56.536Z,102341.36
2019-04-20T10:57:26.268Z,102337.62
2019-04-20T10:59:55.895Z,102333.38
2019-04-20T11:02:25.960Z,102336.91
2019-04-20T11:04:56.982Z,102329.33
2019-04-20T11:07:26.648Z,102329.55
2019-04-20T11:10:07.986Z,102326.77
2019-04-20T11:12:28.512Z,102326.52
2019-04-20T11:14:58.669Z,102327.75
2019-04-20T11:17:29.990Z,102317.55
2019-04-20T11:20:01.292Z,102317.42
2019-04-20T11:22:32.488Z,102322.91
2019-04-20T11:25:02.252Z,102327.02
2019-04-20T11:27:32.430Z,102320.46
2019-04-20T11:30:02.520Z,102320.42
2019-04-20T11:32:33.807Z,102316.42
2019-04-20T11:35:09.044Z,102314.03
2019-04-20T11:37:35.184Z,102312.34
2019-04-20T11:40:07.077Z,102314.09
2019-04-20T11:42:37.423Z,102304.47
2019-04-20T11:45:08.926Z,102299.34
2019-04-20T11:47:39.711Z,102290.42
2019-04-20T11:50:09.808Z,102288.70
2019-04-20T11:52:43.848Z,102289.28
2019-04-20T11:55:11.025Z,102290.73
2019-04-20T11:57:40.669Z,102279.08
2019-04-20T12:00:13.160Z,102276.91
2019-04-20T12:03:09.884Z,102274.63
2019-04-20T12:05:38.111Z,102268.70
2019-04-20T12:08:05.099Z,102271.78
2019-04-20T12:10:35.201Z,102271.84
2019-04-20T12:13:05.870Z,102272.05
2019-04-20T12:15:38.613Z,102267.69
2019-04-20T12:18:07.647Z,102266.12
2019-04-20T12:20:38.786Z,102264.23
2019-04-20T12:23:08.668Z,102256.13
2019-04-20T12:25:40.944Z,102260.47
2019-04-20T12:28:11.476Z,102253.03
2019-04-20T12:30:41.898Z,102256.42
2019-04-20T12:33:11.647Z,102249.81
2019-04-20T12:35:42.549Z,102248.17
2019-04-20T12:38:12.689Z,102239.95
2019-04-20T12:40:42.393Z,102240.09
2019-04-20T12:43:13.215Z,102240.11
2019-04-20T12:45:44.144Z,102235.41
2019-04-20T12:48:15.535Z,102238.92
2019-04-20T12:50:45.687Z,102236.06
2019-04-20T12:53:15.303Z,102226.36
2019-04-20T12:55:46.459Z,102228.73
2019-04-20T12:58:16.744Z,102220.67
2019-04-20T13:00:52.290Z,102220.68
2019-04-20T13:03:23.448Z,102208.55
2019-04-20T13:05:54.274Z,102212.52
2019-04-20T13:08:30.373Z,102210.98
2019-04-20T13:10:58.348Z,102210.28
2019-04-20T13:13:30.403Z,102210.91
2019-04-20T13:16:08.365Z,102207.30
2019-04-20T13:18:39.594Z,102207.30
2019-04-20T13:21:09.371Z,102209.43
2019-04-20T13:23:39.043Z,102198.55
2019-04-20T13:26:10.456Z,102198.55
2019-04-20T13:28:41.238Z,102200.08
2019-04-20T13:31:11.624Z,102188.07
2019-04-20T13:33:41.418Z,102188.07
2019-04-20T13:36:12.484Z,102201.27
2019-04-20T13:38:42.217Z,102198.62
2019-04-20T13:41:11.856Z,102199.20
2019-04-20T13:43:41.885Z,102189.87
2019-04-20T13:46:11.502Z,102190.73
2019-04-20T13:48:41.115Z,102192.33
2019-04-20T13:51:10.757Z,102190.86
2019-04-20T13:53:41.316Z,102180.55
2019-04-20T13:56:11.857Z,102180.65
2019-04-20T13:58:49.601Z,102178.61
2019-04-20T14:01:30.666Z,102173.52
2019-04-20T14:04:05.347Z,102179.05
2019-04-20T14:06:35.351Z,102171.87
2019-04-20T14:09:07.937Z,102174.77
2019-04-20T14:11:39.152Z,102163.01
2019-04-20T14:14:09.047Z,102161.44
2019-04-20T14:16:38.979Z,102161.44
2019-04-20T14:19:09.312Z,102155.80
2019-04-20T14:21:39.010Z,102156.72
2019-04-20T14:24:08.932Z,102147.38
2019-04-20T14:26:39.455Z,102134.05
2019-04-20T14:29:10.395Z,102151.45
2019-04-20T14:31:40.067Z,102145.63
2019-04-20T14:34:10.968Z,102152.34
2019-04-20T14:36:41.225Z,102147.36
2019-04-20T14:39:12.085Z,102147.57
2019-04-20T14:41:42.323Z,102148.14
2019-04-20T14:44:12.199Z,102143.77
2019-04-20T14:46:42.025Z,102149.72
2019-04-20T14:49:12.576Z,102139.97
2019-04-20T14:51:43.428Z,102135.28
2019-04-20T14:54:13.870Z,102131.52
2019-04-20T14:56:43.590Z,102125.77
2019-04-20T14:59:27.424Z,102128.77
2019-04-20T15:02:15.234Z,102127.39
2019-04-20T15:04:45.400Z,102126.34
2019-04-20T15:07:15.106Z,102125.73
2019-04-20T15:09:44.791Z,102117.81
2019-04-20T15:12:14.954Z,102124.09
2019-04-20T15:14:44.973Z,102123.08
2019-04-20T15:17:19.435Z,102119.22
2019-04-20T15:19:57.196Z,102103.56
2019-04-20T15:22:31.676Z,102105.64
2019-04-20T15:25:01.456Z,102107.11
2019-04-20T15:27:31.090Z,102106.52
2019-04-20T15:30:00.754Z,102100.10
2019-04-20T15:32:31.343Z,102096.77
2019-04-20T15:35:01.219Z,102105.58
2019-04-20T15:37:33.057Z,102099.94
2019-04-20T15:40:03.478Z,102109.27
2019-04-20T15:42:33.291Z,102102.73
2019-04-20T15:45:03.463Z,102096.34
2019-04-20T15:47:34.164Z,102100.11
2019-04-20T15:50:05.374Z,102093.10
2019-04-20T15:52:41.060Z,102092.82
2019-04-20T15:55:16.995Z,102089.81
2019-04-20T15:57:38.669Z,102083.68
2019-04-20T16:00:10.748Z,102087.53
2019-04-20T16:02:53.997Z,102089.99
2019-04-20T16:05:35.596Z,102091.66
2019-04-20T16:08:21.387Z,102088.91
2019-04-20T16:11:04.869Z,102080.34
2019-04-20T16:13:38.469Z,102085.36
2019-04-20T16:16:07.856Z,102084.77
2019-04-20T16:18:38.966Z,102088.75
2019-04-20T16:21:14.117Z,102080.66
2019-04-20T16:23:42.955Z,102087.30
2019-04-20T16:26:17.737Z,102083.19
2019-04-20T16:28:47.929Z,102082.78
2019-04-20T16:31:18.325Z,102082.03
2019-04-20T16:33:48.840Z,102078.03
2019-04-20T16:36:18.769Z,102082.92
2019-04-20T16:38:48.390Z,102077.75
2019-04-20T16:41:18.318Z,102078.42
2019-04-20T16:43:48.627Z,102076.93
2019-04-20T16:46:22.490Z,102081.44
2019-04-20T16:48:50.609Z,102075.04
2019-04-20T16:51:20.817Z,102080.42
2019-04-20T16:53:51.856Z,102081.04
2019-04-20T16:56:22.354Z,102076.34
2019-04-20T16:58:54.605Z,102076.98
2019-04-20T17:01:23.612Z,102077.57
2019-04-20T17:04:01.774Z,102072.02
2019-04-20T17:06:26.400Z,102068.92
2019-04-20T17:08:56.600Z,102068.56
2019-04-20T17:11:27.621Z,102059.77
2019-04-20T17:13:59.926Z,102064.25
2019-04-20T17:16:29.066Z,102060.87
2019-04-20T17:18:59.646Z,102063.55
2019-04-20T17:21:31.878Z,102061.76
2019-04-20T17:24:01.612Z,102060.67
2019-04-20T17:26:43.262Z,102063.70
2019-04-20T17:29:18.027Z,102065.01
2019-04-20T17:32:08.036Z,102059.20
2019-04-20T17:34:55.840Z,102067.98
2019-04-20T17:37:10.669Z,102068.45
2019-04-20T17:40:04.161Z,102066.03
2019-04-20T17:42:23.783Z,102070.25
2019-04-20T17:44:52.771Z,102072.52
2019-04-20T17:47:37.367Z,102069.15
2019-04-20T17:50:06.902Z,102068.90
2019-04-20T17:52:43.033Z,102066.08
2019-04-20T17:54:55.820Z,102070.75
2019-04-20T17:57:25.655Z,102065.83
2019-04-20T18:00:00.407Z,102067.56
2019-04-20T18:02:53.508Z,102070.33
2019-04-20T18:05:26.983Z,102061.66
2019-04-20T18:08:04.168Z,102067.88
2019-04-20T18:10:30.304Z,102066.38
2019-04-20T18:12:50.218Z,102072.00
2019-04-20T18:15:36.004Z,102075.59
2019-04-20T18:18:10.281Z,102077.10
2019-04-20T18:20:42.791Z,102073.81
2019-04-20T18:23:12.946Z,102079.16
2019-04-20T18:26:07.906Z,102075.20
2019-04-20T18:28:31.669Z,102074.09
2019-04-20T18:30:59.046Z,102072.36
2019-04-20T18:33:29.971Z,102071.07
2019-04-20T18:35:58.322Z,102077.30
2019-04-20T18:38:32.551Z,102070.45
2019-04-20T18:41:05.975Z,102073.13
2019-04-20T18:43:32.633Z,102076.91
2019-04-20T18:46:17.637Z,102074.63
2019-04-20T18:48:57.047Z,102076.84
2019-04-20T18:51:05.936Z,102076.34
2019-04-20T18:53:41.086Z,102074.03
2019-04-20T18:56:08.124Z,102073.00
2019-04-20T18:58:38.255Z,102076.05
2019-04-20T19:01:07.906Z,102077.25
2019-04-20T19:03:41.852Z,102070.41
2019-04-20T19:06:09.526Z,102073.45
2019-04-20T19:08:46.357Z,102076.14
2019-04-20T19:11:16.542Z,102074.70
2019-04-20T19:13:47.763Z,102081.33
2019-04-20T19:16:46.724Z,102077.72
2019-04-20T19:19:30.153Z,102075.77
2019-04-20T19:21:52.059Z,102074.31
2019-04-20T19:24:26.455Z,102072.45
2019-04-20T19:26:57.428Z,102069.16
2019-04-20T19:29:33.354Z,102071.58
2019-04-20T19:32:11.596Z,102066.34
2019-04-20T19:34:43.168Z,102069.61
2019-04-20T19:37:10.537Z,102075.78
2019-04-20T19:39:47.126Z,102079.80
2019-04-20T19:42:15.216Z,102097.48
2019-04-20T19:44:45.047Z,102096.27
2019-04-20T19:47:24.931Z,102107.55
2019-04-20T19:49:44.959Z,102105.77
2019-04-20T19:52:36.689Z,102107.08
2019-04-20T19:54:54.730Z,102109.23
2019-04-20T19:57:26.630Z,102106.59
2019-04-20T19:59:46.273Z,102108.59
2019-04-20T20:02:13.837Z,102102.06
2019-04-20T20:04:49.226Z,102107.32
2019-04-20T20:07:26.385Z,102105.61
2019-04-20T20:09:53.149Z,102109.27
2019-04-20T20:12:19.806Z,102106.14
2019-04-20T20:14:51.281Z,102104.78
2019-04-20T20:17:44.292Z,102108.13
2019-04-20T20:20:22.879Z,102110.87
2019-04-20T20:22:32.311Z,102113.89
2019-04-20T20:24:54.886Z,102117.44
2019-04-20T20:27:35.279Z,102120.53
2019-04-20T20:30:07.012Z,102123.31
2019-04-20T20:32:49.191Z,102130.88
2019-04-20T20:35:06.606Z,102128.72
2019-04-20T20:37:39.977Z,102136.28
2019-04-20T20:40:15.215Z,102128.47
2019-04-20T20:42:48.679Z,102131.95
2019-04-20T20:45:18.754Z,102139.89
2019-04-20T20:47:54.522Z,102145.54
2019-04-20T20:50:33.843Z,102142.70
2019-04-20T20:52:54.806Z,102151.89
2019-04-20T20:55:24.647Z,102152.27
2019-04-20T20:57:50.859Z,102147.16
2019-04-20T21:00:34.398Z,102149.88
2019-04-20T21:02:53.826Z,102146.64
2019-04-20T21:05:17.701Z,102146.70
2019-04-20T21:07:50.794Z,102144.98
2019-04-20T21:10:26.878Z,102136.44
2019-04-20T21:12:55.413Z,102136.80
2019-04-20T21:15:24.263Z,102132.65
2019-04-20T21:18:17.649Z,102140.13
2019-04-20T21:20:46.106Z,102140.33
2019-04-20T21:23:14.269Z,102145.52
2019-04-20T21:25:37.062Z,102142.42
2019-04-20T21:28:02.548Z,102143.73
2019-04-20T21:30:38.031Z,102140.61
2019-04-20T21:33:05.552Z,102138.37
2019-04-20T21:35:38.140Z,102135.50
2019-04-20T21:38:09.657Z,102136.19
2019-04-20T21:40:41.442Z,102144.72
2019-04-20T21:43:10.527Z,102136.83
2019-04-20T21:45:48.473Z,102139.81
2019-04-20T21:48:31.744Z,102137.56
2019-04-20T21:51:03.815Z,102139.07
2019-04-20T21:53:19.735Z,102133.73
2019-04-20T21:55:46.005Z,102141.66
2019-04-20T21:58:19.329Z,102134.89
2019-04-20T22:01:05.094Z,102133.26
2019-04-20T22:03:24.725Z,102132.35
2019-04-20T22:06:02.816Z,102137.34
2019-04-20T22:08:32.798Z,102136.94
2019-04-20T22:11:03.896Z,102138.20
2019-04-20T22:13:39.782Z,102143.62
2019-04-20T22:16:10.313Z,102148.16
2019-04-20T22:18:48.422Z,102140.77
2019-04-20T22:21:19.888Z,102145.41
2019-04-20T22:23:57.211Z,102147.96
2019-04-20T22:26:23.221Z,102143.83
2019-04-20T22:28:42.395Z,102145.19
2019-04-20T22:31:12.143Z,102147.44
2019-04-20T22:33:44.570Z,102143.81
2019-04-20T22:36:14.526Z,102142.83
2019-04-20T22:39:03.411Z,102139.27
2019-04-20T22:41:34.471Z,102134.16
2019-04-20T22:44:09.462Z,102136.70
2019-04-20T22:46:39.050Z,102143.48
2019-04-20T22:49:28.190Z,102137.64
2019-04-20T22:51:48.246Z,102128.80
2019-04-20T22:54:29.760Z,102134.42
2019-04-20T22:56:55.339Z,102132.45
2019-04-20T22:59:18.495Z,102127.55
2019-04-20T23:01:49.145Z,102126.47
2019-04-20T23:04:16.927Z,102122.78
2019-04-20T23:06:50.074Z,102118.19
2019-04-20T23:09:18.740Z,102115.05
2019-04-20T23:11:49.481Z,102111.77
2019-04-20T23:14:20.361Z,102112.89
2019-04-20T23:16:53.499Z,102104.27
2019-04-20T23:19:32.335Z,102095.39
2019-04-20T23:21:59.070Z,102102.56
2019-04-20T23:24:24.188Z,102098.38
2019-04-20T23:26:55.023Z,102098.98
2019-04-20T23:29:27.252Z,102092.67
2019-04-20T23:32:02.442Z,102093.01
2019-04-20T23:34:30.981Z,102087.86
2019-04-20T23:36:59.132Z,102088.31
2019-04-20T23:39:35.474Z,102089.16
2019-04-20T23:42:05.580Z,102081.81
2019-04-20T23:44:40.035Z,102082.56
2019-04-20T23:47:13.568Z,102086.09
2019-04-20T23:50:00.249Z,102082.22
2019-04-20T23:52:40.039Z,102072.66
2019-04-20T23:54:52.585Z,102072.98
2019-04-20T23:57:15.710Z,102067.59
2019-04-20T23:59:46.973Z,102065.98
